Details for Ryanair at EGSS




Go Back


Latest METAR
Local Time

EGSS 241350Z AUTO 09017KT 9999 NCD 05/M05 Q1022

24/02/2018, 14:00:36

Description
Results
Ryanair Logo
Number of Pilots based at EGSS
2 Pilots Based here
Number of Ryanair Flights Departed from EGSS
20 Flights Departed
Number of Ryanair Flights Arrived at EGSS
21 Flights Arrived
Number of Ryanair Schedules Departing from EGSS
331 Schedules
Number of Ryanair Schedules Arriving at EGSS
323 Schedules
Number of Ryanair Schedules Departing from EGSS availible today
163 Schedules Today
Number of Ryanair Schedules Arriving at EGSS availible today
163 Schedules Today
Average Landing Rate at EGSS
-239 fpm
Ryanair Average Landing Rate at EGSS
-242 fpm
Total Fuel Purchased at EGSS by Ryanair
86,988.28 kgs / 191,774.36 lbs

Pilots Based at EGSS


Pilot ID
Pilot Name
Pilot Rank
No. of Flights
No. of Flying Hours
Ian Hart
5
12.5
Joerg Pfeiffer
32
43.15
Content